createdAt,value
2019-05-13T00:00:15.069Z,13.15
2019-05-13T00:02:43.891Z,15.93
2019-05-13T00:05:14.660Z,10.72
2019-05-13T00:07:43.879Z,15.53
2019-05-13T00:10:14.687Z,16.10
2019-05-13T00:12:44.760Z,10.72
2019-05-13T00:15:13.941Z,14.85
2019-05-13T00:17:44.599Z,12.18
2019-05-13T00:20:14.208Z,14.15
2019-05-13T00:22:44.696Z,14.28
2019-05-13T00:25:14.523Z,16.30
2019-05-13T00:27:44.483Z,18.12
2019-05-13T00:30:14.774Z,12.63
2019-05-13T00:32:44.610Z,12.85
2019-05-13T00:35:14.199Z,12.68
2019-05-13T00:37:44.329Z,13.03
2019-05-13T00:40:14.390Z,14.40
2019-05-13T00:42:44.129Z,14.50
2019-05-13T00:45:14.607Z,13.85
2019-05-13T00:47:43.831Z,8.28
2019-05-13T00:50:14.241Z,11.70
2019-05-13T00:52:44.548Z,10.75
2019-05-13T00:55:14.796Z,13.55
2019-05-13T00:57:43.652Z,8.85
2019-05-13T01:00:14.079Z,10.98
2019-05-13T01:02:44.494Z,17.52
2019-05-13T01:05:14.390Z,19.07
2019-05-13T01:07:44.337Z,10.70
2019-05-13T01:10:13.336Z,20.43
2019-05-13T01:12:43.798Z,9.05
2019-05-13T01:15:13.539Z,9.93
2019-05-13T01:17:44.458Z,7.03
2019-05-13T01:20:14.462Z,11.45
2019-05-13T01:22:44.029Z,9.63
2019-05-13T01:25:14.467Z,9.90
2019-05-13T01:27:44.342Z,15.08
2019-05-13T01:30:13.587Z,12.60
2019-05-13T01:32:44.583Z,10.55
2019-05-13T01:35:14.866Z,12.25
2019-05-13T01:37:45.921Z,10.75
2019-05-13T01:40:13.733Z,10.45
2019-05-13T01:42:44.205Z,12.07
2019-05-13T01:45:13.698Z,13.22
2019-05-13T01:47:44.137Z,11.60
2019-05-13T01:50:14.374Z,11.97
2019-05-13T01:52:44.440Z,16.40
2019-05-13T01:55:14.513Z,9.55
2019-05-13T01:57:44.257Z,13.98
2019-05-13T02:00:14.049Z,10.48
2019-05-13T02:02:44.532Z,11.00
2019-05-13T02:05:13.973Z,10.75
2019-05-13T02:07:54.560Z,17.73
2019-05-13T02:10:14.582Z,15.30
2019-05-13T02:12:44.670Z,12.55
2019-05-13T02:15:14.489Z,14.65
2019-05-13T02:17:44.660Z,11.55
2019-05-13T02:20:14.815Z,14.03
2019-05-13T02:22:44.453Z,12.40
2019-05-13T02:25:13.834Z,13.55
2019-05-13T02:27:43.992Z,17.90
2019-05-13T02:30:15.990Z,14.87
2019-05-13T02:32:43.133Z,11.20
2019-05-13T02:35:13.889Z,10.88
2019-05-13T02:37:43.321Z,8.60
2019-05-13T02:40:13.467Z,13.70
2019-05-13T02:42:43.706Z,8.15
2019-05-13T02:45:12.537Z,11.50
2019-05-13T02:47:44.414Z,11.65
2019-05-13T02:50:12.905Z,12.03
2019-05-13T02:52:43.915Z,12.30
2019-05-13T02:55:12.402Z,16.52
2019-05-13T02:57:43.669Z,9.10
2019-05-13T03:00:12.884Z,12.30
2019-05-13T03:02:43.932Z,9.30
2019-05-13T03:05:13.764Z,12.80
2019-05-13T03:07:42.741Z,14.23
2019-05-13T03:10:13.489Z,10.30
2019-05-13T03:12:42.297Z,12.53
2019-05-13T03:15:12.973Z,15.70
2019-05-13T03:17:46.385Z,15.65
2019-05-13T03:20:16.826Z,9.98
2019-05-13T03:22:44.936Z,11.25
2019-05-13T03:25:13.305Z,14.00
2019-05-13T03:27:42.865Z,14.23
2019-05-13T03:30:16.674Z,11.90
2019-05-13T03:32:50.215Z,14.75
2019-05-13T03:35:16.652Z,12.70
2019-05-13T03:37:42.629Z,16.10
2019-05-13T03:40:13.443Z,13.75
2019-05-13T03:42:45.158Z,6.62
2019-05-13T03:45:13.432Z,11.33
2019-05-13T03:47:42.767Z,16.20
2019-05-13T03:50:12.982Z,15.00
2019-05-13T03:52:43.311Z,11.08
2019-05-13T03:55:13.010Z,16.82
2019-05-13T03:57:42.571Z,10.53
2019-05-13T04:00:13.193Z,11.43
2019-05-13T04:02:43.024Z,14.75
2019-05-13T04:05:13.401Z,14.38
2019-05-13T04:07:43.456Z,8.78
2019-05-13T04:10:13.139Z,13.40
2019-05-13T04:12:42.600Z,18.07
2019-05-13T04:15:12.711Z,16.25
2019-05-13T04:17:42.804Z,11.68
2019-05-13T04:20:12.560Z,14.60
2019-05-13T04:22:42.527Z,15.88
2019-05-13T04:25:12.623Z,14.45
2019-05-13T04:27:42.853Z,16.15
2019-05-13T04:30:13.336Z,18.10
2019-05-13T04:32:44.196Z,14.78
2019-05-13T04:35:12.525Z,21.82
2019-05-13T04:37:43.135Z,13.72
2019-05-13T04:40:12.650Z,17.30
2019-05-13T04:42:42.692Z,14.33
2019-05-13T04:45:13.317Z,16.07
2019-05-13T04:47:43.216Z,15.03
2019-05-13T04:50:12.810Z,15.40
2019-05-13T04:52:42.364Z,15.72
2019-05-13T04:55:13.098Z,15.75
2019-05-13T04:57:42.451Z,14.40
2019-05-13T05:00:12.822Z,17.15
2019-05-13T05:03:03.116Z,16.20
2019-05-13T05:05:35.344Z,19.60
2019-05-13T05:08:15.423Z,15.85
2019-05-13T05:11:13.046Z,20.10
2019-05-13T05:14:05.694Z,14.85
2019-05-13T05:16:44.090Z,16.10
2019-05-13T05:19:47.468Z,17.15
2019-05-13T05:22:37.254Z,15.05
2019-05-13T05:25:29.309Z,24.05
2019-05-13T05:28:02.089Z,18.12
2019-05-13T05:33:48.150Z,14.03
2019-05-13T05:36:41.347Z,13.78
2019-05-13T05:39:27.689Z,21.75
2019-05-13T05:42:02.009Z,15.70
2019-05-13T05:44:32.440Z,19.20
2019-05-13T05:47:03.031Z,17.95
2019-05-13T05:49:32.176Z,15.38
2019-05-13T05:52:05.600Z,18.85
2019-05-13T05:54:36.404Z,14.40
2019-05-13T05:57:06.867Z,12.70
2019-05-13T05:59:37.411Z,17.77
2019-05-13T06:02:07.238Z,18.07
2019-05-13T06:04:35.678Z,16.85
2019-05-13T06:07:04.036Z,15.75
2019-05-13T06:09:32.628Z,14.75
2019-05-13T06:12:01.811Z,14.18
2019-05-13T06:14:32.756Z,20.75
2019-05-13T06:17:02.602Z,17.67
2019-05-13T06:19:31.839Z,16.37
2019-05-13T06:22:02.225Z,12.78
2019-05-13T06:24:31.233Z,17.67
2019-05-13T06:27:01.514Z,12.88
2019-05-13T06:29:31.714Z,18.55
2019-05-13T06:32:15.105Z,13.75
2019-05-13T06:34:32.604Z,16.00
2019-05-13T06:37:01.830Z,13.65
2019-05-13T06:39:31.725Z,10.98
2019-05-13T06:42:02.767Z,13.98
2019-05-13T06:44:31.639Z,13.18
2019-05-13T06:47:02.499Z,11.68
2019-05-13T06:49:32.319Z,11.12
2019-05-13T06:52:01.732Z,14.00
2019-05-13T06:54:33.155Z,12.75
2019-05-13T06:57:04.227Z,15.53
2019-05-13T06:59:31.616Z,15.23
2019-05-13T07:02:02.055Z,10.32
2019-05-13T07:04:32.729Z,13.22
2019-05-13T07:07:12.309Z,13.68
2019-05-13T07:09:32.343Z,9.85
2019-05-13T07:12:03.279Z,13.43
2019-05-13T07:14:32.462Z,9.43
2019-05-13T07:17:02.017Z,12.70
2019-05-13T07:19:32.251Z,10.78
2019-05-13T07:22:02.781Z,10.98
2019-05-13T07:24:32.258Z,11.85
2019-05-13T07:27:01.807Z,8.40
2019-05-13T07:29:32.478Z,11.78
2019-05-13T07:32:01.661Z,12.05
2019-05-13T07:34:33.556Z,14.35
2019-05-13T07:37:02.071Z,12.95
2019-05-13T07:39:32.724Z,9.53
2019-05-13T07:42:04.712Z,8.58
2019-05-13T07:44:32.369Z,8.93
2019-05-13T07:47:03.497Z,9.68
2019-05-13T07:49:31.693Z,11.10
2019-05-13T07:52:01.652Z,9.00
2019-05-13T07:54:32.609Z,14.98
2019-05-13T07:57:02.040Z,8.35
2019-05-13T07:59:31.898Z,8.65
2019-05-13T08:02:02.016Z,9.30
2019-05-13T08:04:33.068Z,14.07
2019-05-13T08:07:01.982Z,9.43
2019-05-13T08:09:31.876Z,6.95
2019-05-13T08:12:10.140Z,11.78
2019-05-13T08:14:32.593Z,8.77
2019-05-13T08:17:02.724Z,10.95
2019-05-13T08:19:32.464Z,9.45
2019-05-13T08:22:02.083Z,10.70
2019-05-13T08:24:31.625Z,7.70
2019-05-13T08:27:01.946Z,7.90
2019-05-13T08:29:32.404Z,10.30
2019-05-13T08:32:02.428Z,10.65
2019-05-13T08:34:32.625Z,11.35
2019-05-13T08:37:02.917Z,6.22
2019-05-13T08:39:35.827Z,6.30
2019-05-13T08:42:12.763Z,10.23
2019-05-13T08:44:32.217Z,12.37
2019-05-13T08:47:03.069Z,9.85
2019-05-13T08:49:32.572Z,8.50
2019-05-13T08:52:01.587Z,8.00
2019-05-13T08:54:32.960Z,5.25
2019-05-13T08:57:02.907Z,5.03
2019-05-13T08:59:31.725Z,3.85
2019-05-13T09:02:03.152Z,5.83
2019-05-13T09:04:31.620Z,4.28
2019-05-13T09:07:02.120Z,5.67
2019-05-13T09:09:31.440Z,4.42
2019-05-13T09:12:02.429Z,5.42
2019-05-13T09:14:32.376Z,7.28
2019-05-13T09:17:01.870Z,6.97
2019-05-13T09:19:32.311Z,4.95
2019-05-13T09:22:02.973Z,3.08
2019-05-13T09:24:37.209Z,6.03
2019-05-13T09:27:02.340Z,6.58
2019-05-13T09:29:32.260Z,7.67
2019-05-13T09:32:03.919Z,5.75
2019-05-13T09:34:32.779Z,4.85
2019-05-13T09:37:02.759Z,4.97
2019-05-13T09:39:32.296Z,7.37
2019-05-13T09:44:32.779Z,5.45
2019-05-13T09:47:02.552Z,7.17
2019-05-13T09:49:32.896Z,5.05
2019-05-13T09:52:01.813Z,5.20
2019-05-13T09:54:32.548Z,8.33
2019-05-13T09:57:01.722Z,5.15
2019-05-13T09:59:31.882Z,6.28
2019-05-13T10:02:02.891Z,7.03
2019-05-13T10:04:31.762Z,4.45
2019-05-13T10:07:02.219Z,3.27
2019-05-13T10:09:32.695Z,4.62
2019-05-13T10:12:03.219Z,1.62
2019-05-13T10:14:32.779Z,4.78
2019-05-13T10:17:05.388Z,5.53
2019-05-13T10:19:32.224Z,3.17
2019-05-13T10:22:00.517Z,7.62
2019-05-13T10:24:28.829Z,7.95
2019-05-13T10:26:57.092Z,6.45
2019-05-13T10:29:25.665Z,6.03
2019-05-13T10:31:54.136Z,2.95
2019-05-13T10:34:22.719Z,5.70
2019-05-13T10:36:51.590Z,4.40
2019-05-13T10:39:22.278Z,4.60
2019-05-13T10:41:52.355Z,4.10
2019-05-13T10:44:20.148Z,4.50
2019-05-13T10:46:48.456Z,5.10
2019-05-13T10:49:16.753Z,3.77
2019-05-13T10:51:45.440Z,4.40
2019-05-13T10:54:13.733Z,3.33
2019-05-13T10:56:43.070Z,5.65
2019-05-13T10:59:12.612Z,5.22
2019-05-13T11:01:42.636Z,5.60
2019-05-13T11:04:13.473Z,4.00
2019-05-13T11:06:41.648Z,4.22
2019-05-13T11:09:13.021Z,6.17
2019-05-13T11:11:41.368Z,3.77
2019-05-13T11:14:12.890Z,4.30
2019-05-13T11:16:42.644Z,4.25
2019-05-13T11:19:11.924Z,4.03
2019-05-13T11:21:43.095Z,5.85
2019-05-13T11:24:12.688Z,5.35
2019-05-13T11:26:41.799Z,5.55
2019-05-13T11:29:12.220Z,3.98
2019-05-13T11:31:42.802Z,5.17
2019-05-13T11:34:10.651Z,4.20
2019-05-13T11:36:42.754Z,4.03
2019-05-13T11:39:12.712Z,5.22
2019-05-13T11:41:42.463Z,3.15
2019-05-13T11:44:16.119Z,5.37
2019-05-13T11:46:42.049Z,5.15
2019-05-13T11:49:11.776Z,5.95
2019-05-13T11:51:39.446Z,5.97
2019-05-13T11:54:07.730Z,34.70
2019-05-13T11:56:36.049Z,2.90
2019-05-13T11:59:04.643Z,5.28
2019-05-13T12:01:33.706Z,1.75
2019-05-13T12:04:02.916Z,2.15
2019-05-13T12:06:33.891Z,2.37
2019-05-13T12:09:03.145Z,4.12
2019-05-13T12:11:33.356Z,2.37
2019-05-13T12:14:01.882Z,3.95
2019-05-13T12:16:30.208Z,2.17
2019-05-13T12:18:58.469Z,2.67
2019-05-13T12:21:26.774Z,1.85
2019-05-13T12:23:55.522Z,2.80
2019-05-13T12:26:24.127Z,4.22
2019-05-13T12:28:53.506Z,3.02
2019-05-13T12:31:22.559Z,3.33
2019-05-13T12:33:52.294Z,2.80
2019-05-13T12:36:23.471Z,2.02
2019-05-13T12:38:53.482Z,4.37
2019-05-13T12:41:23.029Z,3.45
2019-05-13T12:43:53.998Z,2.20
2019-05-13T12:46:24.846Z,5.40
2019-05-13T12:48:51.321Z,4.25
2019-05-13T12:51:20.101Z,3.30
2019-05-13T12:53:52.439Z,3.65
2019-05-13T12:56:19.671Z,4.08
2019-05-13T12:58:52.004Z,2.45
2019-05-13T13:01:23.569Z,3.50
2019-05-13T13:03:49.877Z,4.58
2019-05-13T13:06:30.475Z,4.75
2019-05-13T13:08:50.006Z,2.45
2019-05-13T13:11:18.231Z,3.70
2019-05-13T13:14:05.713Z,3.27
2019-05-13T13:16:16.524Z,3.70
2019-05-13T13:18:44.882Z,3.75
2019-05-13T13:21:14.491Z,2.80
2019-05-13T13:23:43.107Z,3.80
2019-05-13T13:26:15.684Z,4.25
2019-05-13T13:28:43.497Z,2.45
2019-05-13T13:31:12.940Z,2.37
2019-05-13T13:33:44.432Z,2.33
2019-05-13T13:36:15.499Z,3.33
2019-05-13T13:38:43.878Z,2.00
2019-05-13T13:41:21.955Z,5.62
2019-05-13T13:43:42.154Z,3.65
2019-05-13T13:46:25.156Z,3.33
2019-05-13T13:48:43.833Z,2.85
2019-05-13T13:51:14.171Z,5.35
2019-05-13T13:53:44.350Z,2.80
2019-05-13T13:56:14.527Z,5.25
2019-05-13T13:58:43.849Z,3.27
2019-05-13T14:01:18.150Z,4.05
2019-05-13T14:03:46.142Z,5.08
2019-05-13T14:06:12.641Z,3.87
2019-05-13T14:06:32.750Z,5.33
2019-05-13T14:08:41.605Z,2.77
2019-05-13T14:11:11.611Z,5.05
2019-05-13T14:13:42.319Z,3.98
2019-05-13T14:16:25.363Z,2.83
2019-05-13T14:18:41.923Z,3.37
2019-05-13T14:21:10.083Z,3.37
2019-05-13T14:23:38.666Z,2.22
2019-05-13T14:26:06.970Z,2.55
2019-05-13T14:28:35.259Z,3.37
2019-05-13T14:31:03.535Z,2.35
2019-05-13T14:33:35.225Z,5.00
2019-05-13T14:36:02.115Z,2.40
2019-05-13T14:38:32.585Z,4.12
2019-05-13T14:41:03.163Z,3.37
2019-05-13T14:43:31.774Z,3.60
2019-05-13T14:46:02.371Z,5.25
2019-05-13T14:48:32.898Z,4.00
2019-05-13T14:51:01.933Z,4.72
2019-05-13T14:53:32.255Z,3.95
2019-05-13T14:56:02.959Z,4.03
2019-05-13T14:58:32.419Z,4.85
2019-05-13T15:01:14.387Z,4.05
2019-05-13T15:03:32.617Z,2.87
2019-05-13T15:06:01.514Z,5.42
2019-05-13T15:08:32.511Z,3.55
2019-05-13T15:11:02.040Z,3.75
2019-05-13T15:13:31.950Z,3.33
2019-05-13T15:16:01.080Z,7.30
2019-05-13T15:18:29.365Z,4.33
2019-05-13T15:20:58.906Z,5.78
2019-05-13T15:23:28.764Z,3.42
2019-05-13T15:25:57.099Z,3.72
2019-05-13T15:28:25.911Z,4.45
2019-05-13T15:30:54.229Z,6.08
2019-05-13T15:33:22.509Z,4.10
2019-05-13T15:35:51.943Z,4.53
2019-05-13T15:38:20.359Z,2.77
2019-05-13T15:40:48.717Z,4.33
2019-05-13T15:43:16.966Z,4.30
2019-05-13T15:45:45.265Z,3.22
2019-05-13T15:48:13.550Z,4.10
2019-05-13T15:50:42.392Z,3.10
2019-05-13T15:53:12.653Z,4.62
2019-05-13T15:55:41.228Z,4.30
2019-05-13T15:58:11.806Z,3.60
2019-05-13T16:00:41.836Z,3.25
2019-05-13T16:03:11.637Z,3.90
2019-05-13T16:05:41.743Z,3.22
2019-05-13T16:08:11.990Z,3.60
2019-05-13T16:10:41.423Z,2.67
2019-05-13T16:13:11.862Z,2.00
2019-05-13T16:15:41.628Z,3.27
2019-05-13T16:18:11.654Z,2.33
2019-05-13T16:20:42.845Z,3.35
2019-05-13T16:23:12.156Z,2.98
2019-05-13T16:25:41.619Z,0.93
2019-05-13T16:28:09.709Z,3.77
2019-05-13T16:30:38.005Z,1.98
2019-05-13T16:33:06.289Z,1.90
2019-05-13T16:35:34.556Z,3.67
2019-05-13T16:38:04.397Z,2.22
2019-05-13T16:40:36.283Z,1.35
2019-05-13T16:43:02.710Z,2.42
2019-05-13T16:45:31.701Z,3.42
2019-05-13T16:48:03.817Z,3.15
2019-05-13T16:50:31.348Z,1.47
2019-05-13T16:53:01.804Z,1.77
2019-05-13T16:55:29.776Z,2.33
2019-05-13T16:57:58.078Z,1.40
2019-05-13T17:00:26.632Z,2.02
2019-05-13T17:02:54.930Z,2.67
2019-05-13T17:05:23.208Z,1.10
2019-05-13T17:07:51.667Z,1.15
2019-05-13T17:10:20.446Z,3.60
2019-05-13T17:12:52.200Z,4.33
2019-05-13T17:15:21.235Z,3.40
2019-05-13T17:17:51.518Z,4.62
2019-05-13T17:20:21.536Z,2.33
2019-05-13T17:22:51.300Z,3.25
2019-05-13T17:25:19.753Z,3.30
2019-05-13T17:27:48.059Z,2.05
2019-05-13T17:30:16.669Z,3.27
2019-05-13T17:32:44.970Z,3.45
2019-05-13T17:35:13.622Z,1.87
2019-05-13T17:37:42.247Z,3.27
2019-05-13T17:40:11.865Z,4.22
2019-05-13T17:42:41.417Z,2.47
2019-05-13T17:45:11.323Z,1.60
2019-05-13T17:47:41.851Z,4.08
2019-05-13T17:50:11.811Z,5.28
2019-05-13T17:52:40.308Z,3.37
2019-05-13T17:55:11.260Z,3.00
2019-05-13T17:57:41.247Z,1.57
2019-05-13T18:00:09.808Z,2.92
2019-05-13T18:02:38.107Z,5.25
2019-05-13T18:05:06.672Z,1.55
2019-05-13T18:07:34.980Z,1.87
2019-05-13T18:10:04.336Z,1.30
2019-05-13T18:12:32.644Z,1.72
2019-05-13T18:15:02.441Z,2.08
2019-05-13T18:17:31.253Z,1.57
2019-05-13T18:20:02.106Z,2.45
2019-05-13T18:22:31.156Z,3.50
2019-05-13T18:25:02.357Z,2.27
2019-05-13T18:27:29.700Z,2.27
2019-05-13T18:29:57.989Z,1.22
2019-05-13T18:32:26.530Z,3.22
2019-05-13T18:34:54.825Z,1.45
2019-05-13T18:37:23.110Z,2.60
2019-05-13T18:39:52.062Z,2.27
2019-05-13T18:42:22.370Z,3.15
2019-05-13T18:44:51.362Z,2.20
2019-05-13T18:47:21.942Z,2.58
2019-05-13T18:49:49.778Z,2.40
2019-05-13T18:52:18.085Z,3.25
2019-05-13T18:54:46.387Z,2.08
2019-05-13T18:57:14.657Z,4.85
2019-05-13T18:59:42.960Z,2.83
2019-05-13T19:02:12.236Z,4.95
2019-05-13T19:04:41.750Z,2.35
2019-05-13T19:07:10.209Z,2.50
2019-05-13T19:09:38.506Z,2.90
2019-05-13T19:12:06.791Z,1.47
2019-05-13T19:14:35.077Z,2.77
2019-05-13T19:17:03.722Z,4.20
2019-05-13T19:19:32.041Z,2.15
2019-05-13T19:22:02.115Z,1.85
2019-05-13T19:24:31.235Z,3.85
2019-05-13T19:27:01.724Z,4.20
2019-05-13T19:29:31.769Z,2.67
2019-05-13T19:32:01.816Z,3.05
2019-05-13T19:34:32.104Z,3.55
2019-05-13T19:37:02.160Z,2.65
2019-05-13T19:39:31.200Z,2.25
2019-05-13T19:41:59.608Z,2.30
2019-05-13T19:44:27.910Z,3.27
2019-05-13T19:46:56.197Z,4.00
2019-05-13T19:49:32.509Z,6.05
2019-05-13T19:51:54.497Z,2.47
2019-05-13T19:54:22.805Z,3.60
2019-05-13T19:56:52.034Z,4.55
2019-05-13T19:59:21.562Z,2.10
2019-05-13T20:01:51.697Z,2.37
2019-05-13T20:04:21.868Z,4.08
2019-05-13T20:06:51.930Z,1.67
2019-05-13T20:09:21.557Z,1.47
2019-05-13T20:11:55.065Z,3.85
2019-05-13T20:14:22.386Z,3.30
2019-05-13T20:16:52.426Z,2.77
2019-05-13T20:19:22.371Z,4.33
2019-05-13T20:21:51.719Z,3.35
2019-05-13T20:24:21.970Z,1.00
2019-05-13T20:26:52.217Z,2.10
2019-05-13T20:29:20.428Z,2.30
2019-05-13T20:31:48.720Z,1.75
2019-05-13T20:34:17.000Z,5.83
2019-05-13T20:36:45.301Z,4.25
2019-05-13T20:39:13.582Z,1.98
2019-05-13T20:41:41.875Z,3.25
2019-05-13T20:44:10.325Z,1.90
2019-05-13T20:46:38.624Z,2.90
2019-05-13T20:49:06.899Z,3.20
2019-05-13T20:51:35.582Z,3.67
2019-05-13T20:54:03.859Z,5.60
2019-05-13T20:56:32.165Z,2.47
2019-05-13T20:59:00.445Z,4.42
2019-05-13T21:01:28.745Z,4.30
2019-05-13T21:03:57.013Z,3.55
2019-05-13T21:06:25.310Z,3.30
2019-05-13T21:08:53.818Z,4.10
2019-05-13T21:11:22.120Z,4.72
2019-05-13T21:13:51.743Z,4.72
2019-05-13T21:16:21.928Z,3.95
2019-05-13T21:18:50.227Z,3.12
2019-05-13T21:21:18.525Z,4.00
2019-05-13T21:23:46.795Z,2.62
2019-05-13T21:26:15.808Z,2.98
2019-05-13T21:28:44.247Z,5.35
2019-05-13T21:31:12.609Z,8.10
2019-05-13T21:33:40.890Z,3.25
2019-05-13T21:36:09.191Z,2.95
2019-05-13T21:38:37.785Z,5.10
2019-05-13T21:41:06.089Z,3.27
2019-05-13T21:43:34.364Z,4.35
2019-05-13T21:46:02.646Z,5.05
2019-05-13T21:48:32.349Z,5.17
2019-05-13T21:51:00.912Z,3.12
2019-05-13T21:53:29.434Z,5.25
2019-05-13T21:55:57.713Z,4.42
2019-05-13T21:58:26.033Z,3.25
2019-05-13T22:00:54.462Z,6.42
2019-05-13T22:03:22.751Z,4.60
2019-05-13T22:05:51.669Z,3.05
2019-05-13T22:08:21.596Z,4.30
2019-05-13T22:10:52.340Z,2.80
2019-05-13T22:13:20.281Z,5.12
2019-05-13T22:15:48.564Z,3.80
2019-05-13T22:18:16.856Z,4.50
2019-05-13T22:20:50.422Z,4.10
2019-05-13T22:23:15.145Z,4.22
2019-05-13T22:25:43.852Z,6.12
2019-05-13T22:28:12.218Z,4.87
2019-05-13T22:30:41.195Z,3.80
2019-05-13T22:33:12.144Z,4.78
2019-05-13T22:35:41.634Z,5.33
2019-05-13T22:38:12.058Z,4.62
2019-05-13T22:40:41.739Z,6.25
2019-05-13T22:43:11.492Z,5.15
2019-05-13T22:45:41.860Z,4.15
2019-05-13T22:48:12.070Z,4.53
2019-05-13T22:50:41.570Z,3.25
2019-05-13T22:53:12.033Z,5.28
2019-05-13T22:55:41.782Z,5.37
2019-05-13T22:58:09.943Z,6.55
2019-05-13T23:00:38.235Z,7.58
2019-05-13T23:03:06.519Z,3.90
2019-05-13T23:05:34.793Z,6.70
2019-05-13T23:08:03.115Z,5.25
2019-05-13T23:10:31.885Z,4.90
2019-05-13T23:13:02.157Z,3.62
2019-05-13T23:15:30.235Z,5.92
2019-05-13T23:17:58.529Z,6.37
2019-05-13T23:20:26.807Z,6.12
2019-05-13T23:22:55.080Z,8.53
2019-05-13T23:25:23.379Z,5.05
2019-05-13T23:27:51.655Z,7.60
2019-05-13T23:30:19.950Z,5.47
2019-05-13T23:32:48.234Z,6.92
2019-05-13T23:35:16.531Z,7.60
2019-05-13T23:37:44.804Z,8.85
2019-05-13T23:40:13.501Z,6.00
2019-05-13T23:42:41.773Z,7.08
2019-05-13T23:45:11.426Z,6.87
2019-05-13T23:47:41.694Z,4.15
2019-05-13T23:50:12.286Z,6.45
2019-05-13T23:52:41.841Z,6.78
2019-05-13T23:55:11.073Z,8.30
2019-05-13T23:57:41.928Z,7.70
